sensor_id;sensor_type;location;lat;lon;timestamp;pressure;altitude;pressure_sealevel;temperature;humidity
20860;BME280;10590;48.154;11.514;2023-06-04T00:01:05;95635.50;;;15.07;58.15
20860;BME280;10590;48.154;11.514;2023-06-04T00:06:29;95637.53;;;15.10;57.62
20860;BME280;10590;48.154;11.514;2023-06-04T00:11:51;95643.38;;;15.00;55.67
20860;BME280;10590;48.154;11.514;2023-06-04T00:17:12;95633.44;;;15.16;54.66
20860;BME280;10590;48.154;11.514;2023-06-04T00:22:36;95629.13;;;14.72;55.19
20860;BME280;10590;48.154;11.514;2023-06-04T00:27:58;95627.66;;;14.86;54.66
20860;BME280;10590;48.154;11.514;2023-06-04T00:33:20;95638.69;;;14.97;54.11
20860;BME280;10590;48.154;11.514;2023-06-04T00:38:43;95628.75;;;15.13;53.51
20860;BME280;10590;48.154;11.514;2023-06-04T00:44:05;95631.25;;;15.06;52.39
20860;BME280;10590;48.154;11.514;2023-06-04T00:49:27;95634.06;;;14.82;51.97
20860;BME280;10590;48.154;11.514;2023-06-04T00:54:50;95629.94;;;15.00;52.34
20860;BME280;10590;48.154;11.514;2023-06-04T01:00:13;95636.19;;;14.76;52.88
20860;BME280;10590;48.154;11.514;2023-06-04T01:05:39;95632.94;;;14.83;53.60
20860;BME280;10590;48.154;11.514;2023-06-04T01:11:04;95629.81;;;14.69;52.91
20860;BME280;10590;48.154;11.514;2023-06-04T01:16:27;95627.63;;;14.46;53.43
20860;BME280;10590;48.154;11.514;2023-06-04T01:21:52;95637.94;;;14.32;54.55
20860;BME280;10590;48.154;11.514;2023-06-04T01:27:17;95635.78;;;14.38;53.85
20860;BME280;10590;48.154;11.514;2023-06-04T01:32:40;95642.63;;;14.35;54.73
20860;BME280;10590;48.154;11.514;2023-06-04T01:38:02;95642.00;;;14.01;56.58
20860;BME280;10590;48.154;11.514;2023-06-04T01:43:25;95634.38;;;13.91;57.02
20860;BME280;10590;48.154;11.514;2023-06-04T01:48:47;95639.66;;;13.88;57.70
20860;BME280;10590;48.154;11.514;2023-06-04T01:54:09;95638.25;;;13.69;57.90
20860;BME280;10590;48.154;11.514;2023-06-04T01:59:32;95648.88;;;13.66;58.59
20860;BME280;10590;48.154;11.514;2023-06-04T02:04:55;95658.03;;;13.53;59.66
20860;BME280;10590;48.154;11.514;2023-06-04T02:10:18;95659.16;;;13.76;58.45
20860;BME280;10590;48.154;11.514;2023-06-04T02:15:42;95655.06;;;12.80;61.98
20860;BME280;10590;48.154;11.514;2023-06-04T02:21:04;95649.03;;;12.83;62.06
20860;BME280;10590;48.154;11.514;2023-06-04T02:26:26;95647.84;;;13.13;61.24
20860;BME280;10590;48.154;11.514;2023-06-04T02:31:49;95653.94;;;12.39;62.69
20860;BME280;10590;48.154;11.514;2023-06-04T02:37:11;95654.53;;;12.65;61.64
20860;BME280;10590;48.154;11.514;2023-06-04T02:42:33;95657.88;;;12.41;62.77
20860;BME280;10590;48.154;11.514;2023-06-04T02:47:57;95666.78;;;12.25;62.83
20860;BME280;10590;48.154;11.514;2023-06-04T02:53:19;95653.53;;;11.99;63.63
20860;BME280;10590;48.154;11.514;2023-06-04T02:58:49;95663.41;;;12.07;63.83
20860;BME280;10590;48.154;11.514;2023-06-04T03:04:12;95664.88;;;11.96;64.21
20860;BME280;10590;48.154;11.514;2023-06-04T03:09:36;95665.50;;;11.55;65.59
20860;BME280;10590;48.154;11.514;2023-06-04T03:14:57;95674.97;;;11.43;66.63
20860;BME280;10590;48.154;11.514;2023-06-04T03:20:21;95666.78;;;12.25;64.05
20860;BME280;10590;48.154;11.514;2023-06-04T03:25:44;95677.06;;;11.67;65.93
20860;BME280;10590;48.154;11.514;2023-06-04T03:31:07;95695.16;;;11.70;65.52
20860;BME280;10590;48.154;11.514;2023-06-04T03:36:30;95688.56;;;12.06;65.22
20860;BME280;10590;48.154;11.514;2023-06-04T03:41:53;95690.41;;;12.23;64.57
20860;BME280;10590;48.154;11.514;2023-06-04T03:47:16;95700.00;;;11.77;66.65
20860;BME280;10590;48.154;11.514;2023-06-04T03:52:39;95705.53;;;12.19;65.62
20860;BME280;10590;48.154;11.514;2023-06-04T03:58:01;95699.72;;;12.46;65.60
20860;BME280;10590;48.154;11.514;2023-06-04T04:03:23;95699.06;;;12.49;65.89
20860;BME280;10590;48.154;11.514;2023-06-04T04:08:46;95698.81;;;12.84;64.88
20860;BME280;10590;48.154;11.514;2023-06-04T04:14:09;95694.28;;;12.96;64.31
20860;BME280;10590;48.154;11.514;2023-06-04T04:19:30;95705.00;;;12.96;63.50
20860;BME280;10590;48.154;11.514;2023-06-04T04:24:55;95704.75;;;13.10;62.49
20860;BME280;10590;48.154;11.514;2023-06-04T04:30:18;95716.31;;;13.44;60.38
20860;BME280;10590;48.154;11.514;2023-06-04T04:35:40;95722.34;;;13.53;59.55
20860;BME280;10590;48.154;11.514;2023-06-04T04:41:04;95718.25;;;13.67;58.80
20860;BME280;10590;48.154;11.514;2023-06-04T04:46:28;95732.75;;;13.99;57.77
20860;BME280;10590;48.154;11.514;2023-06-04T04:51:49;95725.16;;;14.01;57.59
20860;BME280;10590;48.154;11.514;2023-06-04T04:57:13;95724.72;;;14.36;56.25
20860;BME280;10590;48.154;11.514;2023-06-04T05:02:36;95736.69;;;14.63;55.61
20860;BME280;10590;48.154;11.514;2023-06-04T05:07:58;95733.69;;;14.77;55.14
20860;BME280;10590;48.154;11.514;2023-06-04T05:13:21;95735.66;;;14.92;54.48
20860;BME280;10590;48.154;11.514;2023-06-04T05:18:43;95746.78;;;15.18;52.97
20860;BME280;10590;48.154;11.514;2023-06-04T05:24:06;95753.78;;;15.35;51.77
20860;BME280;10590;48.154;11.514;2023-06-04T05:29:29;95754.66;;;15.39;51.40
20860;BME280;10590;48.154;11.514;2023-06-04T05:34:51;95750.13;;;15.68;50.89
20860;BME280;10590;48.154;11.514;2023-06-04T05:40:13;95764.53;;;15.75;49.69
20860;BME280;10590;48.154;11.514;2023-06-04T05:45:36;95770.75;;;15.51;50.26
20860;BME280;10590;48.154;11.514;2023-06-04T05:50:58;95771.31;;;15.85;48.90
20860;BME280;10590;48.154;11.514;2023-06-04T05:56:20;95774.66;;;15.54;49.10
20860;BME280;10590;48.154;11.514;2023-06-04T06:01:43;95773.22;;;15.84;48.32
20860;BME280;10590;48.154;11.514;2023-06-04T06:07:05;95776.47;;;16.06;47.83
20860;BME280;10590;48.154;11.514;2023-06-04T06:12:27;95783.34;;;16.35;47.03
20860;BME280;10590;48.154;11.514;2023-06-04T06:17:51;95776.25;;;16.74;46.22
20860;BME280;10590;48.154;11.514;2023-06-04T06:23:13;95785.63;;;17.69;44.63
20860;BME280;10590;48.154;11.514;2023-06-04T06:28:35;95787.50;;;18.53;43.12
20860;BME280;10590;48.154;11.514;2023-06-04T06:33:58;95803.72;;;20.66;38.43
20860;BME280;10590;48.154;11.514;2023-06-04T06:39:21;95789.38;;;18.72;42.88
20860;BME280;10590;48.154;11.514;2023-06-04T06:44:43;95795.69;;;17.72;44.52
20860;BME280;10590;48.154;11.514;2023-06-04T06:50:08;95801.09;;;16.67;46.29
20860;BME280;10590;48.154;11.514;2023-06-04T06:55:31;95797.97;;;17.16;46.79
20860;BME280;10590;48.154;11.514;2023-06-04T07:00:53;95795.50;;;18.46;44.15
20860;BME280;10590;48.154;11.514;2023-06-04T07:06:18;95795.38;;;17.97;48.00
20860;BME280;10590;48.154;11.514;2023-06-04T07:11:40;95797.53;;;18.53;45.81
20860;BME280;10590;48.154;11.514;2023-06-04T07:17:02;95787.72;;;19.17;42.31
20860;BME280;10590;48.154;11.514;2023-06-04T07:22:25;95793.81;;;18.61;43.73
20860;BME280;10590;48.154;11.514;2023-06-04T07:27:48;95793.78;;;18.15;44.54
20860;BME280;10590;48.154;11.514;2023-06-04T07:33:11;95798.56;;;20.98;40.83
20860;BME280;10590;48.154;11.514;2023-06-04T07:38:34;95788.59;;;21.93;36.84
20860;BME280;10590;48.154;11.514;2023-06-04T07:43:56;95796.47;;;19.63;40.82
20860;BME280;10590;48.154;11.514;2023-06-04T07:49:18;95789.91;;;19.97;41.05
20860;BME280;10590;48.154;11.514;2023-06-04T07:54:42;95797.84;;;21.09;40.34
20860;BME280;10590;48.154;11.514;2023-06-04T08:00:05;95791.09;;;21.43;39.77
20860;BME280;10590;48.154;11.514;2023-06-04T08:05:28;95788.28;;;22.19;36.83
20860;BME280;10590;48.154;11.514;2023-06-04T08:10:52;95785.59;;;22.44;39.02
20860;BME280;10590;48.154;11.514;2023-06-04T08:16:14;95788.66;;;23.35;34.79
20860;BME280;10590;48.154;11.514;2023-06-04T08:21:36;95793.59;;;23.87;33.79
20860;BME280;10590;48.154;11.514;2023-06-04T08:26:59;95792.22;;;26.29;30.31
20860;BME280;10590;48.154;11.514;2023-06-04T08:32:21;95799.63;;;27.52;28.79
20860;BME280;10590;48.154;11.514;2023-06-04T08:37:43;95806.34;;;27.91;27.75
20860;BME280;10590;48.154;11.514;2023-06-04T08:43:07;95793.94;;;27.63;27.12
20860;BME280;10590;48.154;11.514;2023-06-04T08:48:29;95794.97;;;28.65;26.51
20860;BME280;10590;48.154;11.514;2023-06-04T08:53:52;95795.06;;;27.66;26.90
20860;BME280;10590;48.154;11.514;2023-06-04T08:59:16;95797.31;;;27.08;27.95
20860;BME280;10590;48.154;11.514;2023-06-04T09:04:39;95797.03;;;27.65;27.17
20860;BME280;10590;48.154;11.514;2023-06-04T09:10:01;95802.19;;;27.20;26.83
20860;BME280;10590;48.154;11.514;2023-06-04T09:15:24;95797.88;;;24.57;31.22
20860;BME280;10590;48.154;11.514;2023-06-04T09:20:46;95800.38;;;28.32;26.66
20860;BME280;10590;48.154;11.514;2023-06-04T09:26:09;95803.25;;;25.57;31.29
20860;BME280;10590;48.154;11.514;2023-06-04T09:31:32;95806.56;;;27.80;27.24
20860;BME280;10590;48.154;11.514;2023-06-04T09:36:59;95802.00;;;28.82;27.17
20860;BME280;10590;48.154;11.514;2023-06-04T09:42:21;95786.16;;;28.37;27.02
20860;BME280;10590;48.154;11.514;2023-06-04T09:47:44;95777.63;;;28.68;26.93
20860;BME280;10590;48.154;11.514;2023-06-04T09:53:13;95781.81;;;28.20;26.55
20860;BME280;10590;48.154;11.514;2023-06-04T09:58:37;95784.19;;;28.54;25.60
20860;BME280;10590;48.154;11.514;2023-06-04T10:04:02;95777.03;;;29.09;25.99
20860;BME280;10590;48.154;11.514;2023-06-04T10:09:26;95775.22;;;26.68;27.45
20860;BME280;10590;48.154;11.514;2023-06-04T10:14:52;95779.50;;;28.18;26.25
20860;BME280;10590;48.154;11.514;2023-06-04T10:20:17;95779.03;;;28.04;24.83
20860;BME280;10590;48.154;11.514;2023-06-04T10:25:41;95778.47;;;28.65;24.06
20860;BME280;10590;48.154;11.514;2023-06-04T10:31:03;95781.88;;;28.52;24.32
20860;BME280;10590;48.154;11.514;2023-06-04T10:36:26;95774.53;;;28.82;25.39
20860;BME280;10590;48.154;11.514;2023-06-04T10:41:57;95779.19;;;26.90;26.78
20860;BME280;10590;48.154;11.514;2023-06-04T10:47:20;95778.28;;;27.64;25.42
20860;BME280;10590;48.154;11.514;2023-06-04T10:52:52;95769.69;;;29.64;23.57
20860;BME280;10590;48.154;11.514;2023-06-04T10:58:14;95766.78;;;29.09;23.17
20860;BME280;10590;48.154;11.514;2023-06-04T11:03:37;95769.50;;;28.28;23.93
20860;BME280;10590;48.154;11.514;2023-06-04T11:09:04;95767.50;;;30.26;22.11
20860;BME280;10590;48.154;11.514;2023-06-04T11:14:28;95764.59;;;26.97;25.34
20860;BME280;10590;48.154;11.514;2023-06-04T11:19:50;95759.84;;;27.01;26.15
20860;BME280;10590;48.154;11.514;2023-06-04T11:25:17;95762.81;;;27.93;25.33
20860;BME280;10590;48.154;11.514;2023-06-04T11:30:39;95759.88;;;27.84;25.60
20860;BME280;10590;48.154;11.514;2023-06-04T11:36:01;95760.38;;;27.79;24.51
20860;BME280;10590;48.154;11.514;2023-06-04T11:41:24;95763.41;;;28.01;24.55
20860;BME280;10590;48.154;11.514;2023-06-04T11:46:48;95754.19;;;30.24;22.14
20860;BME280;10590;48.154;11.514;2023-06-04T11:52:12;95747.78;;;26.72;25.58
20860;BME280;10590;48.154;11.514;2023-06-04T11:57:36;95733.91;;;26.82;26.78
20860;BME280;10590;48.154;11.514;2023-06-04T12:02:58;95742.44;;;25.16;28.07
20860;BME280;10590;48.154;11.514;2023-06-04T12:08:20;95742.28;;;28.17;24.48
20860;BME280;10590;48.154;11.514;2023-06-04T12:13:44;95743.50;;;26.71;25.63
20860;BME280;10590;48.154;11.514;2023-06-04T12:19:07;95741.69;;;27.31;25.29
20860;BME280;10590;48.154;11.514;2023-06-04T12:24:29;95743.13;;;28.14;24.02
20860;BME280;10590;48.154;11.514;2023-06-04T12:29:57;95746.66;;;28.83;23.02
20860;BME280;10590;48.154;11.514;2023-06-04T12:35:19;95731.69;;;27.01;25.30
20860;BME280;10590;48.154;11.514;2023-06-04T12:40:41;95722.50;;;27.90;24.37
20860;BME280;10590;48.154;11.514;2023-06-04T12:46:04;95732.22;;;26.92;26.08
20860;BME280;10590;48.154;11.514;2023-06-04T12:51:26;95727.69;;;28.04;24.82
20860;BME280;10590;48.154;11.514;2023-06-04T12:56:48;95718.97;;;27.10;24.28
20860;BME280;10590;48.154;11.514;2023-06-04T13:02:12;95722.34;;;24.47;27.62
20860;BME280;10590;48.154;11.514;2023-06-04T13:07:34;95720.66;;;27.04;24.18
20860;BME280;10590;48.154;11.514;2023-06-04T13:12:56;95714.75;;;26.09;25.71
20860;BME280;10590;48.154;11.514;2023-06-04T13:18:19;95716.69;;;25.13;27.16
20860;BME280;10590;48.154;11.514;2023-06-04T13:23:41;95712.69;;;26.90;25.41
20860;BME280;10590;48.154;11.514;2023-06-04T13:29:03;95718.44;;;26.22;26.40
20860;BME280;10590;48.154;11.514;2023-06-04T13:34:26;95725.41;;;26.53;25.93
20860;BME280;10590;48.154;11.514;2023-06-04T13:39:48;95719.72;;;25.22;27.15
20860;BME280;10590;48.154;11.514;2023-06-04T13:45:10;95723.38;;;26.07;25.65
20860;BME280;10590;48.154;11.514;2023-06-04T13:50:33;95715.59;;;27.03;24.57
20860;BME280;10590;48.154;11.514;2023-06-04T13:55:56;95722.50;;;26.64;25.21
20860;BME280;10590;48.154;11.514;2023-06-04T14:01:19;95723.50;;;24.91;27.56
20860;BME280;10590;48.154;11.514;2023-06-04T14:06:43;95718.50;;;27.15;25.12
20860;BME280;10590;48.154;11.514;2023-06-04T14:12:05;95714.94;;;27.78;24.12
20860;BME280;10590;48.154;11.514;2023-06-04T14:17:27;95713.44;;;27.53;24.10
20860;BME280;10590;48.154;11.514;2023-06-04T14:22:51;95707.06;;;26.97;25.45
20860;BME280;10590;48.154;11.514;2023-06-04T14:28:13;95717.38;;;23.69;29.06
20860;BME280;10590;48.154;11.514;2023-06-04T14:33:35;95706.53;;;23.58;29.54
20860;BME280;10590;48.154;11.514;2023-06-04T14:38:59;95700.44;;;23.11;30.00
20860;BME280;10590;48.154;11.514;2023-06-04T14:44:21;95690.41;;;22.94;30.85
20860;BME280;10590;48.154;11.514;2023-06-04T14:49:43;95687.88;;;23.46;30.10
20860;BME280;10590;48.154;11.514;2023-06-04T14:55:08;95687.91;;;23.42;30.65
20860;BME280;10590;48.154;11.514;2023-06-04T15:00:30;95687.31;;;22.88;31.61
20860;BME280;10590;48.154;11.514;2023-06-04T15:05:52;95690.88;;;23.76;31.11
20860;BME280;10590;48.154;11.514;2023-06-04T15:11:16;95684.91;;;23.05;31.25
20860;BME280;10590;48.154;11.514;2023-06-04T15:16:38;95681.41;;;23.04;31.41
20860;BME280;10590;48.154;11.514;2023-06-04T15:21:59;95695.78;;;23.15;31.01
20860;BME280;10590;48.154;11.514;2023-06-04T15:27:23;95695.22;;;23.63;30.29
20860;BME280;10590;48.154;11.514;2023-06-04T15:32:45;95697.81;;;23.88;29.76
20860;BME280;10590;48.154;11.514;2023-06-04T15:38:07;95698.91;;;23.10;29.77
20860;BME280;10590;48.154;11.514;2023-06-04T15:43:30;95698.53;;;23.96;29.90
20860;BME280;10590;48.154;11.514;2023-06-04T15:48:52;95697.34;;;23.97;28.88
20860;BME280;10590;48.154;11.514;2023-06-04T15:54:14;95694.81;;;23.65;30.17
20860;BME280;10590;48.154;11.514;2023-06-04T15:59:40;95699.69;;;23.07;30.34
20860;BME280;10590;48.154;11.514;2023-06-04T16:05:03;95688.44;;;23.02;31.22
20860;BME280;10590;48.154;11.514;2023-06-04T16:10:25;95693.47;;;23.07;31.04
20860;BME280;10590;48.154;11.514;2023-06-04T16:15:48;95690.41;;;22.69;30.84
20860;BME280;10590;48.154;11.514;2023-06-04T16:21:10;95688.84;;;22.79;30.47
20860;BME280;10590;48.154;11.514;2023-06-04T16:26:35;95685.00;;;22.27;31.79
20860;BME280;10590;48.154;11.514;2023-06-04T16:31:58;95678.72;;;22.94;30.77
20860;BME280;10590;48.154;11.514;2023-06-04T16:37:21;95665.91;;;22.91;30.68
20860;BME280;10590;48.154;11.514;2023-06-04T16:42:42;95674.50;;;22.82;30.59
20860;BME280;10590;48.154;11.514;2023-06-04T16:48:06;95684.97;;;22.73;31.27
20860;BME280;10590;48.154;11.514;2023-06-04T16:53:28;95668.63;;;22.76;30.92
20860;BME280;10590;48.154;11.514;2023-06-04T16:58:50;95665.97;;;22.37;31.80
20860;BME280;10590;48.154;11.514;2023-06-04T17:04:14;95664.00;;;22.41;31.40
20860;BME280;10590;48.154;11.514;2023-06-04T17:09:36;95667.91;;;22.22;31.48
20860;BME280;10590;48.154;11.514;2023-06-04T17:14:58;95677.22;;;22.43;31.58
20860;BME280;10590;48.154;11.514;2023-06-04T17:20:21;95671.00;;;22.28;30.98
20860;BME280;10590;48.154;11.514;2023-06-04T17:25:43;95666.38;;;22.14;31.52
20860;BME280;10590;48.154;11.514;2023-06-04T17:31:05;95695.88;;;22.27;31.54
20860;BME280;10590;48.154;11.514;2023-06-04T17:36:28;95672.13;;;21.84;31.61
20860;BME280;10590;48.154;11.514;2023-06-04T17:41:53;95685.00;;;22.30;31.49
20860;BME280;10590;48.154;11.514;2023-06-04T17:47:15;95681.47;;;22.01;31.79
20860;BME280;10590;48.154;11.514;2023-06-04T17:52:38;95679.81;;;21.54;32.09
20860;BME280;10590;48.154;11.514;2023-06-04T17:58:00;95683.66;;;21.42;32.25
20860;BME280;10590;48.154;11.514;2023-06-04T18:03:22;95680.13;;;21.31;32.54
20860;BME280;10590;48.154;11.514;2023-06-04T18:08:48;95674.75;;;21.45;33.63
20860;BME280;10590;48.154;11.514;2023-06-04T18:14:10;95691.66;;;21.14;33.80
20860;BME280;10590;48.154;11.514;2023-06-04T18:19:33;95690.13;;;21.16;34.76
20860;BME280;10590;48.154;11.514;2023-06-04T18:24:59;95694.25;;;20.85;34.35
20860;BME280;10590;48.154;11.514;2023-06-04T18:30:21;95701.53;;;20.78;35.28
20860;BME280;10590;48.154;11.514;2023-06-04T18:35:45;95697.25;;;20.77;34.56
20860;BME280;10590;48.154;11.514;2023-06-04T18:41:09;95704.19;;;20.67;34.76
20860;BME280;10590;48.154;11.514;2023-06-04T18:46:31;95705.66;;;20.54;35.56
20860;BME280;10590;48.154;11.514;2023-06-04T18:51:53;95706.88;;;20.63;35.20
20860;BME280;10590;48.154;11.514;2023-06-04T18:57:16;95702.31;;;20.78;35.18
20860;BME280;10590;48.154;11.514;2023-06-04T19:02:39;95710.72;;;20.59;35.97
20860;BME280;10590;48.154;11.514;2023-06-04T19:08:01;95713.09;;;20.67;35.45
20860;BME280;10590;48.154;11.514;2023-06-04T19:13:24;95703.91;;;20.31;36.19
20860;BME280;10590;48.154;11.514;2023-06-04T19:18:46;95705.88;;;20.34;36.26
20860;BME280;10590;48.154;11.514;2023-06-04T19:24:08;95720.00;;;20.14;36.78
20860;BME280;10590;48.154;11.514;2023-06-04T19:29:37;95712.69;;;20.18;37.04
20860;BME280;10590;48.154;11.514;2023-06-04T19:35:03;95719.38;;;20.31;36.57
20860;BME280;10590;48.154;11.514;2023-06-04T19:40:26;95724.19;;;20.04;37.06
20860;BME280;10590;48.154;11.514;2023-06-04T19:45:49;95723.56;;;20.21;36.74
20860;BME280;10590;48.154;11.514;2023-06-04T19:51:11;95727.63;;;20.01;37.09
20860;BME280;10590;48.154;11.514;2023-06-04T19:56:34;95730.41;;;20.08;36.99
20860;BME280;10590;48.154;11.514;2023-06-04T20:01:57;95733.50;;;20.07;37.00
20860;BME280;10590;48.154;11.514;2023-06-04T20:07:20;95733.44;;;19.99;37.16
20860;BME280;10590;48.154;11.514;2023-06-04T20:12:42;95718.84;;;19.74;37.25
20860;BME280;10590;48.154;11.514;2023-06-04T20:18:08;95727.91;;;19.92;37.80
20860;BME280;10590;48.154;11.514;2023-06-04T20:23:30;95739.97;;;19.95;37.70
20860;BME280;10590;48.154;11.514;2023-06-04T20:28:59;95727.59;;;19.97;37.77
20860;BME280;10590;48.154;11.514;2023-06-04T20:34:23;95733.09;;;19.67;38.35
20860;BME280;10590;48.154;11.514;2023-06-04T20:39:45;95727.66;;;19.67;38.20
20860;BME280;10590;48.154;11.514;2023-06-04T20:45:09;95720.34;;;19.38;39.18
20860;BME280;10590;48.154;11.514;2023-06-04T20:50:33;95732.34;;;19.70;38.54
20860;BME280;10590;48.154;11.514;2023-06-04T20:55:55;95721.84;;;19.65;38.78
20860;BME280;10590;48.154;11.514;2023-06-04T21:01:17;95730.66;;;19.59;39.06
20860;BME280;10590;48.154;11.514;2023-06-04T21:06:41;95735.16;;;19.48;39.16
20860;BME280;10590;48.154;11.514;2023-06-04T21:12:03;95737.44;;;19.46;39.37
20860;BME280;10590;48.154;11.514;2023-06-04T21:17:27;95731.97;;;19.38;39.69
20860;BME280;10590;48.154;11.514;2023-06-04T21:22:52;95729.13;;;19.28;39.98
20860;BME280;10590;48.154;11.514;2023-06-04T21:28:13;95729.31;;;19.12;40.39
20860;BME280;10590;48.154;11.514;2023-06-04T21:33:38;95736.84;;;18.99;40.96
20860;BME280;10590;48.154;11.514;2023-06-04T21:39:01;95733.00;;;19.00;41.02
20860;BME280;10590;48.154;11.514;2023-06-04T21:44:24;95730.19;;;18.93;41.50
20860;BME280;10590;48.154;11.514;2023-06-04T21:49:46;95725.28;;;19.02;41.68
20860;BME280;10590;48.154;11.514;2023-06-04T21:55:09;95718.31;;;19.01;41.90
20860;BME280;10590;48.154;11.514;2023-06-04T22:00:31;95714.34;;;18.92;42.53
20860;BME280;10590;48.154;11.514;2023-06-04T22:05:53;95711.78;;;19.02;42.54
20860;BME280;10590;48.154;11.514;2023-06-04T22:11:16;95724.78;;;18.93;43.15
20860;BME280;10590;48.154;11.514;2023-06-04T22:16:42;95718.81;;;18.81;44.02
20860;BME280;10590;48.154;11.514;2023-06-04T22:22:04;95716.38;;;18.72;44.49
20860;BME280;10590;48.154;11.514;2023-06-04T22:27:27;95710.16;;;18.68;45.11
20860;BME280;10590;48.154;11.514;2023-06-04T22:32:49;95713.25;;;18.43;45.84
20860;BME280;10590;48.154;11.514;2023-06-04T22:38:11;95714.66;;;18.60;46.01
20860;BME280;10590;48.154;11.514;2023-06-04T22:43:34;95712.88;;;18.45;46.72
20860;BME280;10590;48.154;11.514;2023-06-04T22:48:56;95714.00;;;18.44;47.33
20860;BME280;10590;48.154;11.514;2023-06-04T22:54:21;95728.09;;;18.30;48.29
20860;BME280;10590;48.154;11.514;2023-06-04T22:59:44;95710.72;;;18.08;49.10
20860;BME280;10590;48.154;11.514;2023-06-04T23:05:07;95707.34;;;18.15;49.48
20860;BME280;10590;48.154;11.514;2023-06-04T23:10:29;95714.16;;;18.28;49.61
20860;BME280;10590;48.154;11.514;2023-06-04T23:15:53;95709.28;;;18.14;50.31
20860;BME280;10590;48.154;11.514;2023-06-04T23:21:17;95712.00;;;18.37;49.76
20860;BME280;10590;48.154;11.514;2023-06-04T23:26:39;95707.78;;;18.17;50.52
20860;BME280;10590;48.154;11.514;2023-06-04T23:32:02;95706.47;;;18.07;51.29
20860;BME280;10590;48.154;11.514;2023-06-04T23:37:24;95704.47;;;18.04;51.23
20860;BME280;10590;48.154;11.514;2023-06-04T23:42:47;95707.00;;;17.94;52.21
20860;BME280;10590;48.154;11.514;2023-06-04T23:48:10;95706.47;;;17.85;52.28
20860;BME280;10590;48.154;11.514;2023-06-04T23:53:32;95701.97;;;17.92;52.72
20860;BME280;10590;48.154;11.514;2023-06-04T23:58:57;95700.88;;;17.55;54.41
